Startpagina
METAR-TAF:

METAR-TAF

Vliegvelden :

Djibouti, Djibouti

Luchthaven Ambouli Internationaal

breedte: 11-33N, lengte: 043-10E, hoogte: 49 m

Actueel weer

Dit bericht is 1 uur en het 26 minuten geleden gemaakt, om 17:00 UTC
Wind 7 kt uit het zuidzuidoosten
Temperatuur 26°C
Vochtigheid 74%
Druk 1010 hPa
Weinig wolken op 2300 ft

METAR: HDAM 231700Z 15007KT 9/9 FEW023 26/21 Q1010

Tijdstip: 21:26 (18:26 UTC)

Verwachting

Verwachting geldig van 23 om 06 UTC tot 24 om 06 UTC
Wind 10 kt uit het oosten
Zicht: 9000 m
Verspreide wolken op 2000 ft
Heiigheid
Wijzigt naar
van 23 om 15 UTC tot 23 om 18 UTC
Wind 5 kt uit variabele richting
Weinig wolken op 2000 ft
Wijzigt naar
van 24 om 00 UTC tot 24 om 03 UTC
Wind kt uit het noorden
Verspreide wolken op 2000 ft

TAF: HDAM 2306/2406 08010KT 9000 HZ SCT020 BECMG 2315/2318 VRB05KT FEW020 BECMG 2400/2403 00000KT SCT020

Waarnemingen en weersverwachtingen van meer dan 4000 vliegvelden (METAR en TAF).

De beschikbare stations zijn de gele en rode punten op de kaart.

Ga met uw muis naar het station om de naam te zien.

Klik dan om waarnemingen en weersverwachtingen te zien.

kaart wijzigen: klik op de groene knoppen met een zwart kruis om in te zoomen, op de groene knop met een streepje om uit te zoomen of op de groene pijlen voor aangrenzende kaarten.


METAR-TAF: